Time;durP1;ratioP1;P1;durP2;ratioP2;P2;SDS_P1;SDS_P2;PMS_P1;PMS_P2;Temp;Humidity;BMP_temperature;BMP_pressure;BME280_temperature;BME280_humidity;BME280_pressure;Samples;Min_cycle;Max_cycle;Signal;HPM_P1;HPM_P2
2023/08/27 00:01:18;;;;;;;2.22;1.85;;;17.10;84.90;;;;;;5065096;28;20099;-69
2023/08/27 00:03:44;;;;;;;3.20;1.90;;;17.10;84.90;;;;;;5063647;28;20033;-69
2023/08/27 00:06:10;;;;;;;2.20;2.00;;;17.10;85.00;;;;;;5062621;28;20029;-69
2023/08/27 00:08:36;;;;;;;2.72;2.10;;;17.10;85.10;;;;;;5062882;28;20040;-69
2023/08/27 00:11:04;;;;;;;2.33;2.00;;;17.10;85.10;;;;;;5061528;28;20041;-69
2023/08/27 00:13:30;;;;;;;1.90;1.70;;;17.10;85.00;;;;;;5063648;28;20044;-68
2023/08/27 00:15:56;;;;;;;1.90;1.65;;;17.10;85.00;;;;;;5060049;28;20396;-69
2023/08/27 00:18:21;;;;;;;2.20;2.00;;;17.10;85.00;;;;;;5060283;28;20032;-69
2023/08/27 00:20:48;;;;;;;2.10;1.90;;;17.10;84.90;;;;;;5060768;28;20382;-69
2023/08/27 00:23:13;;;;;;;2.72;2.10;;;17.20;84.90;;;;;;5061068;28;20025;-69
2023/08/27 00:25:39;;;;;;;1.98;1.77;;;17.20;84.90;;;;;;5062343;28;20033;-69
2023/08/27 00:28:06;;;;;;;2.20;1.88;;;17.20;84.90;;;;;;5056847;28;20032;-69
2023/08/27 00:30:32;;;;;;;2.63;1.70;;;17.20;84.80;;;;;;5060132;28;20547;-69
2023/08/27 00:32:57;;;;;;;2.30;1.88;;;17.20;84.70;;;;;;5059021;28;20120;-71
2023/08/27 00:35:23;;;;;;;2.28;1.83;;;17.30;84.70;;;;;;5056333;28;20432;-69
2023/08/27 00:37:49;;;;;;;1.90;1.80;;;17.30;84.70;;;;;;5060924;28;20491;-68
2023/08/27 00:40:15;;;;;;;2.75;2.00;;;17.20;84.80;;;;;;5059883;28;20032;-69
2023/08/27 00:42:41;;;;;;;2.58;1.80;;;17.20;85.00;;;;;;5063724;28;20111;-69
2023/08/27 00:45:06;;;;;;;1.95;1.65;;;17.10;85.00;;;;;;5061064;28;20648;-68
2023/08/27 00:47:36;;;;;;;1.95;1.80;;;17.10;85.00;;;;;;5064849;28;20033;-68
2023/08/27 00:50:03;;;;;;;2.17;1.98;;;17.10;85.00;;;;;;5062190;28;20126;-69
2023/08/27 00:52:29;;;;;;;2.25;1.92;;;17.00;85.10;;;;;;5062643;28;20473;-69
2023/08/27 00:54:58;;;;;;;1.90;1.70;;;17.00;85.20;;;;;;5060527;28;20089;-69
2023/08/27 00:57:25;;;;;;;1.98;1.80;;;17.00;85.10;;;;;;5061048;28;20020;-69
2023/08/27 00:59:52;;;;;;;2.63;2.08;;;17.00;85.20;;;;;;5063729;28;20370;-68
2023/08/27 01:02:18;;;;;;;2.13;1.92;;;16.90;85.20;;;;;;5058469;28;20040;-68
2023/08/27 01:04:44;;;;;;;2.20;2.00;;;16.90;85.30;;;;;;5062094;28;20111;-68
2023/08/27 01:07:16;;;;;;;2.40;2.05;;;16.80;85.40;;;;;;5060376;28;20017;-69
2023/08/27 01:09:56;;;;;;;3.13;2.00;;;16.80;85.50;;;;;;5057445;28;20024;-69
2023/08/27 01:12:35;;;;;;;2.33;1.70;;;16.80;85.50;;;;;;5059416;28;20032;-69
2023/08/27 01:15:03;;;;;;;1.75;1.40;;;16.80;85.40;;;;;;5058541;28;20041;-69
2023/08/27 01:17:31;;;;;;;3.03;1.60;;;16.80;85.20;;;;;;5061106;28;20032;-69
2023/08/27 01:19:56;;;;;;;1.55;1.40;;;16.80;85.10;;;;;;5059279;28;20059;-69
2023/08/27 01:22:22;;;;;;;2.72;1.60;;;16.80;84.80;;;;;;5067459;28;20052;-69
2023/08/27 01:24:48;;;;;;;1.88;1.55;;;16.90;84.70;;;;;;5061107;28;20099;-69
2023/08/27 01:27:26;;;;;;;1.58;1.48;;;16.90;84.70;;;;;;5059779;28;20092;-68
2023/08/27 01:30:03;;;;;;;2.75;1.85;;;16.90;84.60;;;;;;5059497;28;20035;-69
2023/08/27 01:32:50;;;;;;;2.05;1.65;;;16.90;84.50;;;;;;5061734;28;20033;-68
2023/08/27 01:35:16;;;;;;;1.90;1.33;;;16.90;84.30;;;;;;5052845;28;20094;-68
2023/08/27 01:37:42;;;;;;;1.60;1.50;;;16.90;84.20;;;;;;5061371;28;20060;-70
2023/08/27 01:40:08;;;;;;;2.17;1.70;;;17.00;84.10;;;;;;5060944;28;20033;-69
2023/08/27 01:42:37;;;;;;;2.28;1.70;;;16.90;83.90;;;;;;5054767;28;20074;-70
2023/08/27 01:45:08;;;;;;;1.70;1.60;;;16.90;83.90;;;;;;5057267;28;20038;-70
2023/08/27 01:47:34;;;;;;;2.08;1.63;;;16.90;84.00;;;;;;5054406;28;20089;-69
2023/08/27 01:49:59;;;;;;;2.67;1.85;;;16.90;83.80;;;;;;5055635;28;20506;-68
2023/08/27 01:52:25;;;;;;;2.05;1.60;;;16.90;83.90;;;;;;5060464;28;20305;-67
2023/08/27 01:54:50;;;;;;;1.80;1.45;;;16.90;84.00;;;;;;5057017;28;20032;-68
2023/08/27 01:57:16;;;;;;;3.95;1.40;;;16.90;84.00;;;;;;5061550;28;20081;-69
2023/08/27 01:59:42;;;;;;;2.00;1.80;;;16.90;84.10;;;;;;5056388;28;20533;-69
2023/08/27 02:02:07;;;;;;;1.55;1.30;;;16.90;84.10;;;;;;5057042;28;20020;-69
2023/08/27 02:04:33;;;;;;;2.05;1.80;;;16.90;84.10;;;;;;5056452;28;20027;-68
2023/08/27 02:06:58;;;;;;;1.85;1.70;;;16.80;84.00;;;;;;5055193;28;20507;-67
2023/08/27 02:09:24;;;;;;;2.92;1.90;;;16.80;84.20;;;;;;5058371;28;20036;-69
2023/08/27 02:11:50;;;;;;;1.95;1.65;;;16.80;84.40;;;;;;5054934;28;20032;-69
2023/08/27 02:14:16;;;;;;;2.72;1.90;;;16.80;84.50;;;;;;5055234;28;20048;-68
2023/08/27 02:16:41;;;;;;;2.80;2.00;;;16.80;84.60;;;;;;5056934;28;20027;-68
2023/08/27 02:19:07;;;;;;;2.08;1.80;;;16.80;84.80;;;;;;5064081;28;20052;-69
2023/08/27 02:21:33;;;;;;;2.42;2.00;;;16.70;84.90;;;;;;5058732;28;20027;-67
2023/08/27 02:23:59;;;;;;;2.33;2.10;;;16.70;85.00;;;;;;5058116;28;20375;-68
2023/08/27 02:26:25;;;;;;;2.80;2.00;;;16.70;85.10;;;;;;5057232;28;20036;-69
2023/08/27 02:28:51;;;;;;;3.25;1.60;;;16.60;85.40;;;;;;5059615;28;20082;-67
2023/08/27 02:31:16;;;;;;;2.10;1.60;;;16.60;85.50;;;;;;5058044;28;20025;-68
2023/08/27 02:33:44;;;;;;;1.92;1.67;;;16.60;85.60;;;;;;5058976;28;20036;-68
2023/08/27 02:36:09;;;;;;;2.17;1.67;;;16.60;85.80;;;;;;5059303;28;20028;-69
2023/08/27 02:38:35;;;;;;;2.28;1.83;;;16.60;85.90;;;;;;5059027;28;20017;-69
2023/08/27 02:41:01;;;;;;;2.92;1.60;;;16.50;86.00;;;;;;5056353;28;20392;-69
2023/08/27 02:43:27;;;;;;;2.22;1.60;;;16.50;86.30;;;;;;5056050;28;20043;-69
2023/08/27 02:45:52;;;;;;;1.73;1.60;;;16.50;86.30;;;;;;5053570;28;20024;-69
2023/08/27 02:48:18;;;;;;;2.20;2.00;;;16.50;86.20;;;;;;5058003;28;20124;-69
2023/08/27 02:50:44;;;;;;;2.40;1.60;;;16.40;86.40;;;;;;5052368;28;20051;-68
2023/08/27 02:53:09;;;;;;;2.25;1.80;;;16.40;86.60;;;;;;5057860;28;20379;-68
2023/08/27 02:55:35;;;;;;;1.83;1.63;;;16.40;86.70;;;;;;5056417;28;20040;-68
2023/08/27 02:58:01;;;;;;;1.70;1.60;;;16.40;86.70;;;;;;5061641;28;20021;-68
2023/08/27 03:00:27;;;;;;;2.20;1.77;;;16.40;86.70;;;;;;5058132;28;20087;-67
2023/08/27 03:02:53;;;;;;;2.10;1.80;;;16.50;86.60;;;;;;5053412;28;20033;-68
2023/08/27 03:05:19;;;;;;;3.63;2.10;;;16.50;86.60;;;;;;5061515;28;20111;-68
2023/08/27 03:07:45;;;;;;;1.85;1.70;;;16.50;86.50;;;;;;5058977;28;20368;-68
2023/08/27 03:10:11;;;;;;;2.08;1.60;;;16.50;86.50;;;;;;5060601;28;20024;-67
2023/08/27 03:12:37;;;;;;;1.63;1.33;;;16.50;86.40;;;;;;5057486;28;20048;-67
2023/08/27 03:15:03;;;;;;;2.17;1.90;;;16.50;86.20;;;;;;5057006;28;20612;-68
2023/08/27 03:17:28;;;;;;;3.35;2.20;;;16.50;86.10;;;;;;5057768;28;20017;-67
2023/08/27 03:19:54;;;;;;;2.78;1.65;;;16.40;86.20;;;;;;5056619;28;20029;-67
2023/08/27 03:22:20;;;;;;;1.52;1.30;;;16.40;86.50;;;;;;5059038;28;20120;-67
2023/08/27 03:24:46;;;;;;;1.65;1.50;;;16.40;86.50;;;;;;5059059;28;20014;-67
2023/08/27 03:27:12;;;;;;;2.53;1.70;;;16.50;86.40;;;;;;5059946;28;20048;-68
2023/08/27 03:29:38;;;;;;;2.10;1.60;;;16.40;86.30;;;;;;5053470;28;20049;-68
2023/08/27 03:32:04;;;;;;;1.98;1.75;;;16.40;86.30;;;;;;5055761;28;20075;-68
2023/08/27 03:34:30;;;;;;;2.55;2.30;;;16.40;86.50;;;;;;5056128;28;20074;-69
2023/08/27 03:36:55;;;;;;;3.47;1.70;;;16.30;86.80;;;;;;5054192;28;20029;-69
2023/08/27 03:39:21;;;;;;;3.10;1.77;;;16.30;87.10;;;;;;5055966;28;20020;-69
2023/08/27 03:41:46;;;;;;;1.90;1.70;;;16.30;87.20;;;;;;5057233;28;20039;-69
2023/08/27 03:44:12;;;;;;;2.15;1.70;;;16.30;87.30;;;;;;5057794;28;20093;-69
2023/08/27 03:46:40;;;;;;;2.25;1.98;;;16.30;87.20;;;;;;5057172;28;20036;-68
2023/08/27 03:49:06;;;;;;;3.15;1.70;;;16.30;87.40;;;;;;5048284;28;20035;-69
2023/08/27 03:51:31;;;;;;;2.05;1.80;;;16.30;87.50;;;;;;5057407;28;20029;-69
2023/08/27 03:53:58;;;;;;;2.85;1.80;;;16.30;87.70;;;;;;5052413;28;20036;-69
2023/08/27 03:56:24;;;;;;;2.53;2.08;;;16.30;87.90;;;;;;5057093;28;20104;-67
2023/08/27 03:58:50;;;;;;;3.45;2.60;;;16.20;88.50;;;;;;5060894;28;20031;-69
2023/08/27 04:01:16;;;;;;;3.42;2.60;;;16.10;89.20;;;;;;5057579;28;20391;-68
2023/08/27 04:03:42;;;;;;;4.53;2.97;;;16.00;90.00;;;;;;5061114;28;20059;-68
2023/08/27 04:06:10;;;;;;;3.83;2.55;;;15.90;90.30;;;;;;5057777;28;20028;-68
2023/08/27 04:08:36;;;;;;;3.55;2.30;;;15.80;90.50;;;;;;5060949;28;20044;-68
2023/08/27 04:11:02;;;;;;;4.05;2.72;;;15.80;90.60;;;;;;5059383;28;20028;-69
2023/08/27 04:13:28;;;;;;;3.78;2.80;;;15.80;90.70;;;;;;5057880;28;20025;-69
2023/08/27 04:16:01;;;;;;;3.50;2.70;;;15.80;90.80;;;;;;5058808;28;20063;-69
2023/08/27 04:18:27;;;;;;;3.35;2.40;;;15.90;90.90;;;;;;5055386;28;20051;-69
2023/08/27 04:20:54;;;;;;;2.72;2.10;;;15.90;90.90;;;;;;5058495;28;20500;-69
2023/08/27 04:23:20;;;;;;;2.50;2.15;;;16.00;90.80;;;;;;5058194;28;20095;-68
2023/08/27 04:25:47;;;;;;;2.75;2.20;;;16.00;90.70;;;;;;5066114;28;20154;-69
2023/08/27 04:28:13;;;;;;;2.72;2.13;;;16.10;90.70;;;;;;5061161;28;20012;-69
2023/08/27 04:30:39;;;;;;;2.72;2.10;;;16.10;90.70;;;;;;5060325;28;20109;-69
2023/08/27 04:33:06;;;;;;;3.28;2.58;;;16.10;90.70;;;;;;5061948;28;20040;-69
2023/08/27 04:35:32;;;;;;;3.65;2.55;;;16.10;90.80;;;;;;5059226;28;20021;-69
2023/08/27 04:37:58;;;;;;;5.15;3.47;;;16.10;90.90;;;;;;5058554;28;20104;-69
2023/08/27 04:40:24;;;;;;;4.68;3.00;;;16.10;90.90;;;;;;5057965;28;20640;-70
2023/08/27 04:42:49;;;;;;;3.35;2.42;;;16.00;91.00;;;;;;5061880;28;20032;-69
2023/08/27 04:45:15;;;;;;;4.95;3.10;;;16.00;91.10;;;;;;5062875;28;20070;-69
2023/08/27 04:47:41;;;;;;;3.47;2.33;;;16.00;91.20;;;;;;5055017;28;20033;-70
2023/08/27 04:50:08;;;;;;;3.72;2.55;;;16.00;91.20;;;;;;5062014;28;20501;-70
2023/08/27 04:52:34;;;;;;;3.58;2.45;;;16.00;91.10;;;;;;5061755;28;20483;-69
2023/08/27 04:55:00;;;;;;;2.33;2.05;;;16.00;91.10;;;;;;5060523;28;20017;-69
2023/08/27 04:57:26;;;;;;;3.22;2.38;;;16.10;91.00;;;;;;5061954;28;20028;-68
2023/08/27 04:59:54;;;;;;;3.05;2.38;;;16.10;91.00;;;;;;5058246;28;20024;-69
2023/08/27 05:02:19;;;;;;;3.08;2.30;;;16.20;91.00;;;;;;5064139;28;20107;-68
2023/08/27 05:04:45;;;;;;;2.85;2.00;;;16.10;91.00;;;;;;5056347;28;20105;-67
2023/08/27 05:07:11;;;;;;;3.25;1.95;;;16.20;91.00;;;;;;5057200;28;20163;-68
2023/08/27 05:09:37;;;;;;;2.25;1.88;;;16.20;90.90;;;;;;5063691;28;20539;-69
2023/08/27 05:12:03;;;;;;;2.35;1.80;;;16.20;90.90;;;;;;5060049;28;20112;-68
2023/08/27 05:14:28;;;;;;;2.65;2.00;;;16.30;90.80;;;;;;5062794;28;20662;-68
2023/08/27 05:16:54;;;;;;;2.75;2.40;;;16.30;90.70;;;;;;5064040;28;20440;-67
2023/08/27 05:19:19;;;;;;;3.10;2.33;;;16.20;90.60;;;;;;5056120;28;20151;-69
2023/08/27 05:21:45;;;;;;;2.63;1.80;;;16.10;90.80;;;;;;5059432;28;20025;-68
2023/08/27 05:24:11;;;;;;;2.63;2.00;;;16.10;90.90;;;;;;5061670;28;20025;-70
2023/08/27 05:26:36;;;;;;;2.38;2.00;;;16.10;90.90;;;;;;5065156;28;20479;-68
2023/08/27 05:29:02;;;;;;;3.05;2.20;;;16.10;90.90;;;;;;5068891;28;20028;-69
2023/08/27 05:31:28;;;;;;;4.03;2.00;;;16.10;91.00;;;;;;5070856;28;20032;-69
2023/08/27 05:33:53;;;;;;;2.45;1.90;;;16.00;91.00;;;;;;5060014;28;20462;-67
2023/08/27 05:36:20;;;;;;;3.83;1.80;;;16.10;91.00;;;;;;5070120;28;20038;-68
2023/08/27 05:38:46;;;;;;;2.78;1.92;;;16.00;91.00;;;;;;5065972;28;20067;-68
2023/08/27 05:41:12;;;;;;;1.52;1.40;;;16.00;91.00;;;;;;5068536;28;20021;-69
2023/08/27 05:43:38;;;;;;;2.10;1.73;;;16.00;91.00;;;;;;5069616;28;20024;-67
2023/08/27 05:46:03;;;;;;;2.70;1.70;;;16.10;91.00;;;;;;5057772;28;20106;-68
2023/08/27 05:48:29;;;;;;;1.90;1.60;;;16.00;91.00;;;;;;5067454;28;20066;-67
2023/08/27 05:50:54;;;;;;;1.85;1.48;;;16.00;91.00;;;;;;5059061;28;20491;-68
2023/08/27 05:53:20;;;;;;;2.30;1.60;;;16.10;91.10;;;;;;5060038;28;20040;-66
2023/08/27 05:55:45;;;;;;;1.98;1.63;;;16.10;91.00;;;;;;5062970;28;20032;-68
2023/08/27 05:58:11;;;;;;;3.55;1.70;;;16.10;91.00;;;;;;5056573;28;20025;-70
2023/08/27 06:00:37;;;;;;;2.25;1.50;;;16.10;91.00;;;;;;5058786;28;20028;-69
2023/08/27 06:03:03;;;;;;;1.77;1.50;;;16.20;91.00;;;;;;5066846;28;20059;-67
2023/08/27 06:05:29;;;;;;;1.92;1.52;;;16.40;90.80;;;;;;5059203;28;20016;-69
2023/08/27 06:07:54;;;;;;;1.75;1.50;;;16.70;90.70;;;;;;5064423;28;20420;-68
2023/08/27 06:10:20;;;;;;;2.08;1.50;;;17.20;90.00;;;;;;5059570;28;20036;-68
2023/08/27 06:12:46;;;;;;;1.58;1.40;;;17.60;89.40;;;;;;5066994;28;20673;-70
2023/08/27 06:15:12;;;;;;;1.92;1.40;;;17.60;87.80;;;;;;5056788;28;20071;-69
2023/08/27 06:17:37;;;;;;;1.92;1.50;;;17.60;87.60;;;;;;5058278;28;20367;-70
2023/08/27 06:20:03;;;;;;;1.90;1.48;;;17.30;87.50;;;;;;5062800;28;20383;-70
2023/08/27 06:22:29;;;;;;;1.40;1.30;;;17.10;88.00;;;;;;5064742;28;20070;-70
2023/08/27 06:24:54;;;;;;;2.22;1.70;;;17.00;88.70;;;;;;5055773;28;20499;-70
2023/08/27 06:27:20;;;;;;;1.63;1.30;;;16.90;89.30;;;;;;5063749;28;20107;-70
2023/08/27 06:29:45;;;;;;;1.70;1.33;;;16.80;89.70;;;;;;5064536;28;20035;-69
2023/08/27 06:32:13;;;;;;;2.05;1.38;;;16.80;90.00;;;;;;5060737;28;20036;-71
2023/08/27 06:34:39;;;;;;;2.38;1.40;;;17.00;90.00;;;;;;5062263;28;20027;-70
2023/08/27 06:37:05;;;;;;;2.45;1.30;;;17.50;89.20;;;;;;5059161;28;20033;-69
2023/08/27 06:39:30;;;;;;;2.38;1.20;;;17.70;87.90;;;;;;5061333;28;20020;-70
2023/08/27 06:41:56;;;;;;;1.80;1.20;;;17.80;87.20;;;;;;5051378;28;20033;-69
2023/08/27 06:44:22;;;;;;;2.33;1.45;;;17.80;86.90;;;;;;5060165;28;20590;-70
2023/08/27 06:46:47;;;;;;;1.95;1.40;;;17.70;86.80;;;;;;5064100;28;20412;-70
2023/08/27 06:49:13;;;;;;;3.42;1.42;;;17.70;87.10;;;;;;5058527;28;20021;-70
2023/08/27 06:51:38;;;;;;;3.55;1.90;;;17.80;86.70;;;;;;5064635;28;20487;-70
2023/08/27 06:54:04;;;;;;;2.00;1.63;;;17.80;86.90;;;;;;5064004;28;20040;-70
2023/08/27 06:56:30;;;;;;;3.58;2.00;;;18.30;85.90;;;;;;5055779;28;20024;-70
2023/08/27 06:58:55;;;;;;;1.98;1.30;;;19.60;83.60;;;;;;5060237;28;20078;-70
2023/08/27 07:01:21;;;;;;;1.98;1.50;;;20.30;80.40;;;;;;5057967;28;20078;-70
2023/08/27 07:03:46;;;;;;;2.00;1.63;;;20.40;78.80;;;;;;5065091;28;20094;-71
2023/08/27 07:06:12;;;;;;;2.15;1.70;;;20.20;78.00;;;;;;5057735;28;20504;-70
2023/08/27 07:08:38;;;;;;;2.67;1.63;;;19.90;78.90;;;;;;5063612;28;20430;-70
2023/08/27 07:11:04;;;;;;;2.95;1.90;;;20.50;77.50;;;;;;5060681;28;20020;-69
2023/08/27 07:13:30;;;;;;;2.35;1.60;;;19.90;77.40;;;;;;5061791;28;20107;-70
2023/08/27 07:15:57;;;;;;;3.55;2.35;;;19.50;78.80;;;;;;5062851;28;20032;-69
2023/08/27 07:18:23;;;;;;;2.97;2.15;;;19.80;78.70;;;;;;5056710;28;20027;-70
2023/08/27 07:20:48;;;;;;;3.95;2.03;;;19.30;79.30;;;;;;5055096;28;20479;-69
2023/08/27 07:23:15;;;;;;;2.72;1.90;;;19.10;80.50;;;;;;5067486;28;20071;-70
2023/08/27 07:25:41;;;;;;;4.57;2.60;;;18.80;81.60;;;;;;5057450;28;20020;-70
2023/08/27 07:28:07;;;;;;;4.93;2.25;;;18.60;82.60;;;;;;5054944;28;20029;-70
2023/08/27 07:30:33;;;;;;;3.85;2.30;;;18.50;83.50;;;;;;5068699;28;20539;-69
2023/08/27 07:32:58;;;;;;;2.65;2.05;;;18.40;84.10;;;;;;5064327;28;20039;-69
2023/08/27 07:35:24;;;;;;;3.92;2.60;;;18.30;84.50;;;;;;5066863;28;20020;-70
2023/08/27 07:37:50;;;;;;;2.72;2.30;;;18.30;85.10;;;;;;5061327;28;20036;-69
2023/08/27 07:40:16;;;;;;;5.45;2.38;;;18.50;84.70;;;;;;5061864;28;20017;-69
2023/08/27 07:42:41;;;;;;;5.03;3.25;;;18.50;84.80;;;;;;5063736;28;20024;-72
2023/08/27 07:45:07;;;;;;;4.05;2.90;;;18.70;85.20;;;;;;5065976;28;20021;-69
2023/08/27 07:47:33;;;;;;;4.28;2.35;;;18.80;84.40;;;;;;5066436;28;20031;-70
2023/08/27 07:49:59;;;;;;;4.95;3.10;;;18.80;84.40;;;;;;5065795;28;20013;-70
2023/08/27 07:52:25;;;;;;;5.53;3.28;;;19.10;84.40;;;;;;5072053;28;20491;-69
2023/08/27 07:54:50;;;;;;;6.03;3.60;;;19.70;82.80;;;;;;5063747;28;20020;-71
2023/08/27 07:57:16;;;;;;;4.70;2.95;;;21.30;79.30;;;;;;5071847;28;20399;-69
2023/08/27 07:59:42;;;;;;;3.33;2.58;;;21.80;76.20;;;;;;5068360;28;20680;-69
2023/08/27 08:02:08;;;;;;;4.03;2.90;;;21.60;75.30;;;;;;5071824;28;20025;-69
2023/08/27 08:04:33;;;;;;;4.20;2.80;;;21.00;76.40;;;;;;5069742;28;20028;-70
2023/08/27 08:06:59;;;;;;;7.03;3.25;;;20.40;78.10;;;;;;5062839;28;20131;-69
2023/08/27 08:09:25;;;;;;;4.32;2.95;;;20.40;79.30;;;;;;5062535;28;20024;-69
2023/08/27 08:11:50;;;;;;;5.80;2.78;;;20.60;80.00;;;;;;5062183;28;20524;-70
2023/08/27 08:14:16;;;;;;;4.15;2.80;;;21.80;76.90;;;;;;5063978;28;20043;-70
2023/08/27 08:16:41;;;;;;;3.80;2.50;;;21.90;75.40;;;;;;5063949;28;20035;-69
2023/08/27 08:19:07;;;;;;;4.63;2.90;;;22.10;75.40;;;;;;5063517;28;20024;-69
2023/08/27 08:21:32;;;;;;;4.65;2.90;;;23.50;72.30;;;;;;5064022;28;20060;-68
2023/08/27 08:23:58;;;;;;;5.00;2.80;;;24.40;70.30;;;;;;5067357;28;20139;-69
2023/08/27 08:26:24;;;;;;;5.85;3.30;;;25.20;67.40;;;;;;5061456;28;20039;-69
2023/08/27 08:28:49;;;;;;;5.70;3.17;;;23.90;68.20;;;;;;5060433;28;20479;-69
2023/08/27 08:31:15;;;;;;;3.50;2.78;;;22.80;70.60;;;;;;5062748;28;20450;-68
2023/08/27 08:33:41;;;;;;;5.63;3.10;;;22.90;71.10;;;;;;5064336;28;20017;-68
2023/08/27 08:36:07;;;;;;;5.32;2.95;;;23.90;70.40;;;;;;5058919;28;21213;-69
2023/08/27 08:38:33;;;;;;;5.72;2.92;;;25.00;68.00;;;;;;5061898;28;20025;-69
2023/08/27 08:41:01;;;;;;;5.38;3.15;;;25.70;66.00;;;;;;5064069;28;20021;-69
2023/08/27 08:43:45;;;;;;;5.93;3.60;;;25.60;65.10;;;;;;5062231;28;20036;-68
2023/08/27 08:46:13;;;;;;;6.50;3.80;;;25.00;64.70;;;;;;5061395;28;20043;-68
2023/08/27 08:48:42;;;;;;;4.47;3.08;;;24.40;65.20;;;;;;5061974;28;20021;-69
2023/08/27 08:51:13;;;;;;;5.57;3.60;;;23.00;67.30;;;;;;5064993;28;20475;-70
2023/08/27 08:53:44;;;;;;;4.70;3.45;;;22.40;69.70;;;;;;5060341;28;20539;-71
2023/08/27 08:56:16;;;;;;;4.85;3.25;;;22.00;70.90;;;;;;5061326;28;20028;-70
2023/08/27 08:58:44;;;;;;;3.70;2.58;;;21.50;72.10;;;;;;5064184;28;20017;-70
2023/08/27 09:01:11;;;;;;;3.85;2.97;;;21.40;73.20;;;;;;5061096;28;20021;-71
2023/08/27 09:03:39;;;;;;;3.50;2.50;;;21.00;73.60;;;;;;5066303;28;20498;-70
2023/08/27 09:06:05;;;;;;;2.97;2.67;;;20.90;74.30;;;;;;5061101;28;20463;-69
2023/08/27 09:08:31;;;;;;;3.15;2.38;;;20.80;74.50;;;;;;5066704;28;20028;-69
2023/08/27 09:10:57;;;;;;;3.17;2.13;;;20.70;74.60;;;;;;5060063;28;20028;-70
2023/08/27 09:13:23;;;;;;;5.47;2.85;;;20.60;74.60;;;;;;5060465;28;20363;-68
2023/08/27 09:15:49;;;;;;;2.60;2.20;;;20.60;74.40;;;;;;5054875;28;20033;-68
2023/08/27 09:18:16;;;;;;;4.05;2.60;;;20.60;74.90;;;;;;5056351;28;20016;-70
2023/08/27 09:20:42;;;;;;;4.82;2.58;;;20.80;74.10;;;;;;5064953;28;20447;-68
2023/08/27 09:23:09;;;;;;;4.03;2.10;;;20.60;72.70;;;;;;5064567;28;20032;-71
2023/08/27 09:25:38;;;;;;;2.67;1.90;;;20.60;73.00;;;;;;5067080;28;20031;-71
2023/08/27 09:28:06;;;;;;;4.07;2.10;;;20.60;73.20;;;;;;5064489;28;20028;-72
2023/08/27 09:30:33;;;;;;;2.35;2.00;;;20.70;72.40;;;;;;5069196;28;20028;-72
2023/08/27 09:32:59;;;;;;;3.60;2.10;;;20.80;72.70;;;;;;5065311;28;20025;-72
2023/08/27 09:35:38;;;;;;;4.00;2.10;;;20.80;72.00;;;;;;5062605;28;20035;-73
2023/08/27 09:38:05;;;;;;;4.15;2.72;;;21.00;72.40;;;;;;5061250;28;20027;-73
2023/08/27 09:40:31;;;;;;;3.72;2.80;;;20.90;71.80;;;;;;5060500;28;20029;-73
2023/08/27 09:43:07;;;;;;;2.67;2.30;;;20.80;71.60;;;;;;5056284;28;20081;-73
2023/08/27 09:45:37;;;;;;;2.95;2.20;;;20.60;71.90;;;;;;5065190;28;20032;-71
2023/08/27 09:48:04;;;;;;;5.30;2.60;;;20.60;72.10;;;;;;5059682;28;20024;-72
2023/08/27 09:50:31;;;;;;;2.67;2.17;;;20.50;72.20;;;;;;5060319;28;20036;-71
2023/08/27 09:53:12;;;;;;;3.85;2.60;;;20.50;71.80;;;;;;5062353;28;20036;-72
2023/08/27 09:55:40;;;;;;;3.85;2.13;;;20.40;71.40;;;;;;5064579;28;20644;-70
2023/08/27 09:58:06;;;;;;;2.72;2.00;;;20.40;71.30;;;;;;5059792;28;20036;-71
2023/08/27 10:00:33;;;;;;;4.25;2.40;;;20.50;71.40;;;;;;5065763;28;20024;-72
2023/08/27 10:02:59;;;;;;;3.03;1.92;;;20.50;70.80;;;;;;5063641;28;20514;-71
2023/08/27 10:05:27;;;;;;;3.25;1.70;;;20.40;70.80;;;;;;5067577;28;20136;-69
2023/08/27 10:08:04;;;;;;;2.53;1.83;;;20.40;71.00;;;;;;5063143;28;20634;-71
2023/08/27 10:10:33;;;;;;;3.30;1.67;;;20.60;70.60;;;;;;5059664;28;20013;-69
2023/08/27 10:13:00;;;;;;;3.65;2.30;;;20.70;70.60;;;;;;5063120;28;20028;-70
2023/08/27 10:15:27;;;;;;;2.20;1.67;;;20.60;69.30;;;;;;5064542;28;20081;-70
2023/08/27 10:17:53;;;;;;;2.83;1.60;;;20.50;69.30;;;;;;5057210;28;20052;-71
2023/08/27 10:20:19;;;;;;;4.03;1.77;;;20.50;70.20;;;;;;5094568;22;20063;-85
2023/08/27 10:22:46;;;;;;;2.13;1.60;;;20.40;70.20;;;;;;5098767;28;21267;-87
2023/08/27 10:25:17;;;;;;;2.63;1.25;;;20.40;70.40;;;;;;5087569;28;20111;-87
2023/08/27 10:27:46;;;;;;;2.57;0.90;;;20.30;70.10;;;;;;5084451;28;20038;-87
2023/08/27 10:30:14;;;;;;;1.13;0.80;;;20.20;68.40;;;;;;5087033;28;20035;-87
2023/08/27 10:32:39;;;;;;;1.23;0.60;;;19.90;66.90;;;;;;5090169;28;20028;-87
2023/08/27 10:35:05;;;;;;;1.05;0.80;;;19.70;67.20;;;;;;5082493;28;20081;-89
2023/08/27 10:37:36;;;;;;;0.88;0.70;;;19.50;67.30;;;;;;5088036;28;20051;-92
2023/08/27 10:40:08;;;;;;;0.60;0.60;;;19.40;67.30;;;;;;5082833;28;20092;-86
2023/08/27 10:42:36;;;;;;;0.60;0.60;;;19.20;67.10;;;;;;5089212;28;20102;-86
2023/08/27 10:45:29;;;;;;;1.00;0.70;;;19.10;67.30;;;;;;5081291;28;20119;-87
2023/08/27 10:48:19;;;;;;;0.85;0.60;;;19.00;67.00;;;;;;5083408;28;20127;-87
2023/08/27 10:50:49;;;;;;;0.40;0.40;;;19.00;67.30;;;;;;5081308;28;20028;-86
2023/08/27 10:53:19;;;;;;;0.70;0.70;;;19.00;67.70;;;;;;5084908;28;20027;-86
2023/08/27 10:55:50;;;;;;;0.60;0.60;;;19.00;67.60;;;;;;5088258;28;20038;-87
2023/08/27 10:58:23;;;;;;;0.63;0.60;;;19.00;67.50;;;;;;5086757;28;20060;-86
2023/08/27 11:01:09;;;;;;;0.90;0.80;;;19.00;67.60;;;;;;5088312;28;20596;-86
2023/08/27 11:03:57;;;;;;;0.80;0.80;;;19.00;67.90;;;;;;5081932;28;20020;-86
2023/08/27 11:06:40;;;;;;;1.27;0.80;;;19.00;68.70;;;;;;5088305;28;20020;-86
2023/08/27 11:09:27;;;;;;;1.00;0.80;;;19.00;69.30;;;;;;5089333;28;20048;-86
2023/08/27 11:11:55;;;;;;;1.13;0.80;;;19.10;69.80;;;;;;5088479;28;20043;-86
2023/08/27 11:14:23;;;;;;;1.70;0.80;;;19.10;70.20;;;;;;5083386;28;20036;-86
2023/08/27 11:17:28;;;;;;;1.40;0.95;;;19.30;70.30;;;;;;5081347;28;20103;-86
2023/08/27 11:19:57;;;;;;;2.33;1.00;;;19.50;70.20;;;;;;5085861;28;20027;-86
2023/08/27 11:22:23;;;;;;;1.83;1.10;;;19.50;70.10;;;;;;5085462;28;20389;-86
2023/08/27 11:24:53;;;;;;;1.30;0.90;;;19.50;70.10;;;;;;5088481;28;20020;-86
2023/08/27 11:27:23;;;;;;;1.98;1.20;;;19.40;70.40;;;;;;5093438;28;20054;-84
2023/08/27 11:29:55;;;;;;;1.75;0.88;;;19.30;70.80;;;;;;5086049;28;20051;-86
2023/08/27 11:32:21;;;;;;;1.45;1.20;;;19.10;71.30;;;;;;5086860;28;20116;-86
2023/08/27 11:34:51;;;;;;;2.35;1.23;;;18.90;71.70;;;;;;5087308;28;20031;-84
2023/08/27 11:37:17;;;;;;;2.00;0.98;;;18.70;72.20;;;;;;5090643;28;20487;-86
2023/08/27 11:39:43;;;;;;;3.72;1.60;;;18.50;72.80;;;;;;5089424;28;20027;-85
2023/08/27 11:42:11;;;;;;;1.92;1.00;;;18.10;74.00;;;;;;5089582;28;20020;-85
2023/08/27 11:44:57;;;;;;;1.30;0.95;;;17.80;75.00;;;;;;5091550;28;20016;-85
2023/08/27 11:47:23;;;;;;;1.42;0.85;;;17.50;75.40;;;;;;5088926;28;20043;-86
2023/08/27 11:49:51;;;;;;;2.63;1.10;;;17.40;76.00;;;;;;5091476;28;20028;-87
2023/08/27 11:52:18;;;;;;;2.05;1.15;;;17.20;76.00;;;;;;5093768;28;20529;-86
2023/08/27 11:54:46;;;;;;;1.35;1.08;;;16.90;76.90;;;;;;5101495;28;20097;-87
2023/08/27 11:57:13;;;;;;;1.15;0.90;;;16.70;77.50;;;;;;5105473;28;20529;-88
2023/08/27 11:59:39;;;;;;;0.88;0.73;;;16.70;77.80;;;;;;5099142;28;20031;-87
2023/08/27 12:02:06;;;;;;;1.83;0.90;;;16.80;78.00;;;;;;5094020;28;20024;-87
2023/08/27 12:05:20;;;;;;;1.00;0.90;;;16.80;78.00;;;;;;5093393;28;20043;-85
2023/08/27 12:07:55;;;;;;;0.93;0.80;;;16.80;78.00;;;;;;5084264;28;20048;-85
2023/08/27 12:10:23;;;;;;;0.60;0.60;;;17.00;77.90;;;;;;5088676;28;20096;-87
2023/08/27 12:17:10;;;;;;;0.80;0.80;;;17.30;77.70;;;;;;5088004;28;20114;-85
2023/08/27 12:20:19;;;;;;;1.20;0.77;;;17.60;77.60;;;;;;5039379;28;20043;-85
2023/08/27 12:23:15;;;;;;;1.13;0.80;;;17.80;77.50;;;;;;5041821;28;20037;-85
2023/08/27 12:26:13;;;;;;;1.42;0.70;;;18.00;77.60;;;;;;4970351;28;20071;-86
2023/08/27 12:28:39;;;;;;;1.38;1.00;;;18.20;77.70;;;;;;5028669;28;20021;-85
2023/08/27 12:31:05;;;;;;;1.52;1.30;;;18.50;77.80;;;;;;5035449;28;20559;-87
2023/08/27 12:33:39;;;;;;;1.52;1.08;;;18.60;77.60;;;;;;5060259;28;20036;-86
2023/08/27 12:36:08;;;;;;;1.30;0.90;;;18.80;77.70;;;;;;5090381;28;20021;-86
2023/08/27 12:38:34;;;;;;;1.23;1.02;;;19.00;77.60;;;;;;5092114;28;20016;-87
2023/08/27 12:41:00;;;;;;;1.20;1.00;;;19.20;77.50;;;;;;5093390;28;20091;-86
2023/08/27 12:43:26;;;;;;;2.33;1.13;;;19.20;77.70;;;;;;5091518;28;20028;-86
2023/08/27 12:45:52;;;;;;;0.82;0.80;;;19.30;77.70;;;;;;5092007;28;20024;-86
2023/08/27 12:48:18;;;;;;;1.10;1.00;;;19.40;77.30;;;;;;5083668;28;20574;-86
2023/08/27 12:50:44;;;;;;;1.30;0.88;;;19.40;77.20;;;;;;5090885;28;20020;-86
2023/08/27 12:53:09;;;;;;;1.60;1.10;;;19.50;77.10;;;;;;5091269;28;20115;-86
2023/08/27 12:55:35;;;;;;;1.40;1.00;;;19.60;77.30;;;;;;5092097;28;20032;-86